G31463 / PR-GXV 7700 Squawk Report (28th of January, 2020)

Aircraft B738 Reg No. PR-GXV Age 5 years old
Model 737 Jet engines 2 First flight 15-05-14
Registered 13-06-14 Rollout N/A Delivered 03-06-14
Construction No. 39639 Line No. 4931 Series 8EH
ADSHEX E48FB6 Airline name Gol Transportes Aéreos Owner N/A
Airfield based Sao Paulo-Congonhas~Sao Paulo~PP First tracked 2017-07-13 10:21:00

Flight history for PR-GXV

Route Flight No Date Playback
Presidente Juscelino Kubitschek (BSB) - Tancredo Neves Intl (CNF) G31706 2020-02-17 02:50:00
Santos Dumont (SDU) - Presidente Juscelino Kubitschek (BSB) G32020 2020-02-17 01:54:00
Afonso Pena (CWB) - Santos Dumont (SDU) G32093 2020-02-16 22:01:00
Santos Dumont (SDU) - Afonso Pena (CWB) G32090 2020-02-16 20:45:00
Goiabeiras (VIX) - Santos Dumont (SDU) G32193 2020-02-16 18:49:00
Guarulhos Gov Andre Franco Montoro (GRU) - Goiabeiras (VIX) G31392 2020-02-16 14:54:00
Guararapes Gilberto Freyre Intl (REC) - Guarulhos Gov Andre Franco Montoro (GRU) G31613 2020-02-16 13:47:00
Congonhas (CGH) - Guararapes Gilberto Freyre Intl (REC) G31560 2020-02-16 08:34:00
Presidente Juscelino Kubitschek (BSB) - Congonhas (CGH) G31595 2020-02-15 22:26:00
Santos Dumont (SDU) - Presidente Juscelino Kubitschek (BSB) G32064 2020-02-15 14:49:00
Goiabeiras (VIX) - Santos Dumont (SDU) G32191 2020-02-15 12:21:00
Santos Dumont (SDU) - Goiabeiras (VIX) G32190 2020-02-15 11:27:00
Tancredo Neves Intl (CNF) - Santos Dumont (SDU) G32059 2020-02-15 00:32:00
Guarulhos Gov Andre Franco Montoro (GRU) - Tancredo Neves Intl (CNF) G31338 2020-02-14 22:59:00
Tancredo Neves Intl (CNF) - Guarulhos Gov Andre Franco Montoro (GRU) G31319 2020-02-14 22:10:00
Pinto Martins Intl (FOR) - Deputado Luis Eduardo Magalhaes (SSA) - Tancredo Neves Intl (CNF) G31831 2020-02-14 18:40:00
Presidente Juscelino Kubitschek (BSB) - Deputado Luis Eduardo Magalhaes (SSA) G31924 2020-02-14 14:34:00
Congonhas (CGH) - Presidente Juscelino Kubitschek (BSB) G31460 2020-02-14 11:42:00
Greater Natal International (NAT) - Congonhas (CGH) G39183 2020-02-14 10:19:00
Presidente Juscelino Kubitschek (BSB) - Greater Natal International (NAT) G39202 2020-02-14 04:27:00
Time Lat Lon Altitude Heading Speed Vertical Rate
2020-01-29 01:14:22 GMT -23.631731 -46.654011 0 239 10 0
2020-01-29 01:13:59 GMT -23.630707 -46.653728 0 157 19 0
2020-01-29 01:13:55 GMT -23.630253 -46.653988 0 146 24 0
2020-01-29 01:13:43 GMT -23.628674 -46.655083 0 146 84 0
2020-01-29 01:13:28 GMT -23.620886 -46.660439 2,575 146 143 -640
2020-01-29 01:13:21 GMT -23.617113 -46.663132 2,600 146 143 -640
2020-01-29 01:13:10 GMT -23.611761 -46.666862 2,725 147 140 -768
2020-01-29 01:13:03 GMT -23.607239 -46.669971 2,825 147 140 -640
2020-01-29 01:13:00 GMT -23.605682 -46.671040 2,875 147 140 -640
2020-01-29 01:12:51 GMT -23.600418 -46.674652 2,975 147 137 -768
2020-01-29 01:12:39 GMT -23.594955 -46.678368 3,125 147 133 -640
2020-01-29 01:12:32 GMT -23.590532 -46.681427 3,175 147 131 -768
2020-01-29 01:12:28 GMT -23.588018 -46.683136 3,225 147 132 -768
2020-01-29 01:12:24 GMT -23.586390 -46.684277 3,250 147 132 -832
2020-01-29 01:12:19 GMT -23.583921 -46.685986 3,300 145 131 -704
2020-01-29 01:12:13 GMT -23.581268 -46.687904 3,375 145 131 -704
2020-01-29 01:12:07 GMT -23.578196 -46.690132 3,475 149 132 -704
2020-01-29 01:12:02 GMT -23.575378 -46.691944 3,500 146 132 -960
2020-01-29 01:11:56 GMT -23.571959 -46.694328 3,575 146 132 -960
2020-01-29 01:11:51 GMT -23.569153 -46.696320 3,650 147 132 -640
2020-01-29 01:11:47 GMT -23.567276 -46.697590 3,675 147 131 -512
2020-01-29 01:11:34 GMT -23.560318 -46.702374 3,800 148 130 -704
2020-01-29 01:11:28 GMT -23.558132 -46.703865 3,850 148 131 -704
2020-01-29 01:11:25 GMT -23.556271 -46.705109 3,900 148 131 -640
2020-01-29 01:11:15 GMT -23.550613 -46.708984 4,000 147 132 -768
2020-01-29 01:11:04 GMT -23.545258 -46.712749 4,125 147 132 -768
2020-01-29 01:10:53 GMT -23.539743 -46.716511 4,250 147 131 -768
2020-01-29 01:10:47 GMT -23.536331 -46.718861 4,325 147 131 -576
2020-01-29 01:10:43 GMT -23.534088 -46.720409 4,375 147 131 -640
2020-01-29 01:10:35 GMT -23.530666 -46.722820 4,450 146 132 -768
2020-01-29 01:10:32 GMT -23.528732 -46.724205 4,500 145 131 -704
2020-01-29 01:10:25 GMT -23.525221 -46.726887 4,575 142 132 -832
2020-01-29 01:10:21 GMT -23.523451 -46.728363 4,625 142 134 -832
2020-01-29 01:10:11 GMT -23.518066 -46.732742 4,775 143 141 -1152
2020-01-29 01:10:00 GMT -23.512482 -46.737736 4,925 125 151 -832
2020-01-29 01:09:49 GMT -23.509253 -46.744946 5,150 106 152 -1280
2020-01-29 01:09:42 GMT -23.507578 -46.750843 5,300 106 154 -832
2020-01-29 01:09:39 GMT -23.507034 -46.752769 5,350 107 156 -448
2020-01-29 01:09:32 GMT -23.505524 -46.758312 5,400 105 164 -1024
2020-01-29 01:09:28 GMT -23.504829 -46.761017 5,450 105 165 -1344
2020-01-29 01:09:21 GMT -23.503201 -46.767120 5,600 106 167 -1280
2020-01-29 01:09:16 GMT -23.502457 -46.769897 5,675 106 168 -1216
2020-01-29 01:09:07 GMT -23.500031 -46.778786 5,900 106 174 -1280
2020-01-29 01:08:59 GMT -23.498383 -46.784878 6,125 105 178 -1280
2020-01-29 01:08:56 GMT -23.497513 -46.787975 6,100 106 178 -1216
2020-01-29 01:08:49 GMT -23.495956 -46.793869 6,250 105 180 -896
2020-01-29 01:08:45 GMT -23.495178 -46.797012 6,300 104 182 -704
2020-01-29 01:08:37 GMT -23.493393 -46.804554 6,425 103 190 -768
2020-01-29 01:08:34 GMT -23.492844 -46.807152 6,425 103 190 -768
2020-01-29 01:08:28 GMT -23.490692 -46.816940 6,525 103 195 -896
2020-01-29 01:08:24 GMT -23.490692 -46.816940 6,575 103 196 -1024
2020-01-29 01:08:17 GMT -23.489273 -46.823082 6,675 104 199 -1344
2020-01-29 01:08:13 GMT -23.488352 -46.826782 6,750 104 200 -768
2020-01-29 01:08:07 GMT -23.485838 -46.837463 6,875 103 203 -1088
2020-01-29 01:08:03 GMT -23.485838 -46.837463 6,900 103 203 -1152
2020-01-29 01:07:55 GMT -23.483734 -46.846802 7,075 103 203 -1152
2020-01-29 01:07:52 GMT -23.483734 -46.846802 7,075 104 203 -1152
2020-01-29 01:07:42 GMT -23.481276 -46.857300 7,875 104 202 -1280
2020-01-29 01:07:32 GMT -23.478882 -46.867775 7,500 103 202 -1088
2020-01-29 01:07:21 GMT -23.476501 -46.878464 7,675 103 203 -1088
2020-01-29 01:07:13 GMT -23.474665 -46.886700 7,825 103 205 -832
2020-01-29 01:07:10 GMT -23.474075 -46.889297 7,850 103 207 -768
2020-01-29 01:07:00 GMT -23.471638 -46.900024 8,025 103 208 -1216
2020-01-29 01:06:52 GMT -23.469637 -46.908569 8,150 104 209 -1024
2020-01-29 01:06:48 GMT -23.469040 -46.911221 8,200 104 209 -1024
2020-01-29 01:06:41 GMT -23.467075 -46.919556 8,350 104 209 -1152
2020-01-29 01:06:37 GMT -23.466518 -46.921997 8,400 104 209 -1024
2020-01-29 01:06:30 GMT -23.464422 -46.931000 8,525 104 210 -1024
2020-01-29 01:06:26 GMT -23.463638 -46.934494 8,575 103 210 -1152
2020-01-29 01:06:23 GMT -23.462839 -46.938019 8,650 103 210 -1088
2020-01-29 01:06:17 GMT -23.460434 -46.948475 8,825 103 210 -1152
2020-01-29 01:06:06 GMT -23.457022 -46.963501 9,350 103 211 -896
2020-01-29 01:05:58 GMT -23.457022 -46.963501 9,075 103 211 -960
2020-01-29 01:05:46 GMT -23.454088 -46.975964 9,250 104 213 -1024
2020-01-29 01:05:42 GMT -23.453297 -46.979321 9,700 104 216 -1088
2020-01-29 01:05:34 GMT -23.451096 -46.988724 9,450 104 214 -1088
2020-01-29 01:05:23 GMT -23.448349 -47.000462 9,650 104 215 -1024
2020-01-29 01:05:19 GMT -23.447342 -47.004654 9,700 104 216 -1088
2020-01-29 01:05:15 GMT -23.446381 -47.008900 9,775 103 216 -1152
2020-01-29 01:05:11 GMT -23.445568 -47.012482 9,825 103 216 -1152
2020-01-29 01:05:04 GMT -23.443800 -47.020111 9,975 104 216 -1088
2020-01-29 01:05:01 GMT -23.443335 -47.022198 10,025 112 221 -1280
2020-01-29 01:04:52 GMT -23.440168 -47.036236 10,225 104 219 -1088
2020-01-29 01:04:39 GMT -23.437683 -47.046654 10,325 107 220 -1216
2020-01-29 01:04:36 GMT -23.436584 -47.049763 10,425 114 221 -1280
2020-01-29 01:04:31 GMT -23.434296 -47.054745 10,500 122 222 -1280
2020-01-29 01:04:28 GMT -23.427320 -47.064465 10,700 131 223 -1408
2020-01-29 01:04:20 GMT -23.427320 -47.064465 10,675 136 223 -1344
2020-01-29 01:04:17 GMT -23.425964 -47.065830 11,000 145 224 -1280
2020-01-29 01:04:09 GMT -23.419220 -47.072144 10,900 139 222 -1216
2020-01-29 01:04:06 GMT -23.416855 -47.074318 10,950 139 222 -1280
2020-01-29 01:03:57 GMT -23.408936 -47.081509 11,150 140 222 -1152
2020-01-29 01:03:49 GMT -23.400330 -47.089199 11,275 141 223 -1088
2020-01-29 01:03:36 GMT -23.392960 -47.094296 11,475 157 225 -1536
2020-01-29 01:03:33 GMT -23.388823 -47.095997 11,525 161 226 -1472
2020-01-29 01:03:26 GMT -23.381374 -47.097473 11,675 177 227 -1280
2020-01-29 01:03:16 GMT -23.371691 -47.097828 11,825 177 227 -1216
2020-01-29 01:03:13 GMT -23.368292 -47.097980 11,900 177 227 -1152
2020-01-29 01:03:09 GMT -23.364103 -47.098133 11,975 177 228 -1088
2020-01-29 01:03:05 GMT -23.359447 -47.098286 12,050 177 228 -1088
2020-01-29 01:03:02 GMT -23.356468 -47.098389 12,100 177 228 -960
2020-01-29 01:02:58 GMT -23.353317 -47.098537 12,150 177 229 -960
2020-01-29 01:02:54 GMT -23.345627 -47.098789 12,325 178 231 -1280
2020-01-29 01:02:42 GMT -23.334503 -47.099190 12,475 178 230 -1280
2020-01-29 01:02:38 GMT -23.330027 -47.099354 12,550 178 230 -1216
2020-01-29 01:02:33 GMT -23.324905 -47.099506 12,650 178 230 -1280
2020-01-29 01:02:30 GMT -23.322098 -47.099586 12,700 178 230 -1280
2020-01-29 01:02:25 GMT -23.317841 -47.099686 13,125 178 246 -512
2020-01-29 01:02:22 GMT -23.310608 -47.099888 12,900 178 230 -1152
2020-01-29 01:02:16 GMT -23.307402 -47.099964 12,950 179 230 -1088
2020-01-29 01:02:10 GMT -23.297333 -47.100136 13,075 179 231 -1024
2020-01-29 01:02:07 GMT -23.297333 -47.100136 13,125 179 231 -960
2020-01-29 01:02:04 GMT -23.293900 -47.100185 13,175 179 232 -960
2020-01-29 01:02:01 GMT -23.290644 -47.100220 13,200 179 233 -896
2020-01-29 01:01:58 GMT -23.285660 -47.100285 13,275 179 235 -768
2020-01-29 01:01:51 GMT -23.279797 -47.100372 13,350 179 238 -704
2020-01-29 01:01:48 GMT -23.277328 -47.100388 13,350 179 239 -768
2020-01-29 01:01:45 GMT -23.273560 -47.100475 13,400 178 241 -832
2020-01-29 01:01:37 GMT -23.265289 -47.100685 13,475 178 244 -512
2020-01-29 01:01:33 GMT -23.259384 -47.100784 13,525 178 251 -640
2020-01-29 01:01:27 GMT -23.252703 -47.100933 13,575 178 251 -640
2020-01-29 01:01:24 GMT -23.248049 -47.101032 13,625 178 253 -640
2020-01-29 01:01:21 GMT -23.244507 -47.101135 13,675 178 263 -1024
2020-01-29 01:01:18 GMT -23.242369 -47.101185 13,725 178 257 -320
2020-01-29 01:01:09 GMT -23.232779 -47.101391 13,725 178 262 -896
2020-01-29 01:01:05 GMT -23.227661 -47.101486 13,875 178 263 -960
2020-01-29 01:00:58 GMT -23.213974 -47.101883 13,950 178 266 -448
2020-01-29 01:00:55 GMT -23.210999 -47.101933 13,950 178 266 -448
2020-01-29 01:00:48 GMT -23.206291 -47.102051 13,975 178 270 -384
2020-01-29 01:00:45 GMT -23.202530 -47.102184 14,000 178 272 -320
2020-01-29 01:00:42 GMT -23.198750 -47.102306 14,025 178 273 -320
2020-01-29 01:00:38 GMT -23.192604 -47.102661 14,050 174 278 -64
2020-01-29 01:00:33 GMT -23.187195 -47.103233 14,075 172 280 0
2020-01-29 01:00:29 GMT -23.182022 -47.104031 14,100 171 282 -448
2020-01-29 01:00:26 GMT -23.177353 -47.104782 14,125 171 285 -448
2020-01-29 01:00:23 GMT -23.173645 -47.105331 14,150 171 287 -320
2020-01-29 01:00:16 GMT -23.164078 -47.106827 14,200 172 292 -832
2020-01-29 01:00:13 GMT -23.160065 -47.107391 14,225 172 293 -1152
2020-01-29 01:00:07 GMT -23.151672 -47.108627 14,350 172 294 -1344
2020-01-29 01:00:04 GMT -23.148972 -47.109024 14,375 172 294 -1344
2020-01-29 01:00:01 GMT -23.136787 -47.110699 14,750 172 298 -1600
2020-01-29 00:59:55 GMT -23.136787 -47.110699 14,600 172 295 -1536
2020-01-29 00:59:52 GMT -23.129711 -47.111713 14,675 172 295 -1536
2020-01-29 00:59:45 GMT -23.122330 -47.112720 14,825 172 297 -1664
2020-01-29 00:59:41 GMT -23.117144 -47.113445 14,950 172 298 -1664
2020-01-29 00:59:34 GMT -23.106157 -47.114918 15,125 172 299 -1536
2020-01-29 00:59:31 GMT -23.103104 -47.115318 15,175 172 300 -1472
2020-01-29 00:59:28 GMT -23.098988 -47.115887 15,250 172 301 -1408
2020-01-29 00:59:23 GMT -23.087585 -47.117516 15,400 172 303 -1408
2020-01-29 00:59:20 GMT -23.087585 -47.117516 15,425 172 303 -1408
2020-01-29 00:59:17 GMT -23.084244 -47.118015 15,475 172 304 -1472
2020-01-29 00:59:11 GMT -23.074677 -47.119411 15,650 172 306 -1728
2020-01-29 00:59:07 GMT -23.071011 -47.119953 15,725 172 306 -1792
2020-01-29 00:59:00 GMT -23.060532 -47.121410 15,875 172 307 -1920
2020-01-29 00:58:57 GMT -23.055182 -47.122143 16,050 172 306 -2176
2020-01-29 00:58:50 GMT -23.045591 -47.123615 16,275 171 305 -2304
2020-01-29 00:58:46 GMT -23.040565 -47.124432 16,400 170 303 -2304
2020-01-29 00:58:39 GMT -23.030556 -47.126209 16,675 172 301 -2688
2020-01-29 00:58:35 GMT -23.025284 -47.126854 16,750 176 299 -2880
2020-01-29 00:58:28 GMT -23.010166 -47.125500 17,125 193 295 -2624
2020-01-29 00:58:25 GMT -23.010166 -47.125500 17,200 197 294 -2560
2020-01-29 00:58:16 GMT -22.999832 -47.121208 17,400 209 291 -2496
2020-01-29 00:58:13 GMT -22.996582 -47.119164 17,550 213 290 -2304
2020-01-29 00:58:09 GMT -22.991034 -47.115021 17,700 217 289 -1920
2020-01-29 00:58:05 GMT -22.987381 -47.112122 17,800 217 288 -1856
2020-01-29 00:58:02 GMT -22.985447 -47.110546 17,850 217 288 -1856
2020-01-29 00:57:55 GMT -22.976370 -47.103321 18,225 217 290 -1664
2020-01-29 00:57:52 GMT -22.974014 -47.101383 18,150 217 290 -1664
2020-01-29 00:57:46 GMT -22.966644 -47.095444 18,325 217 292 -1664
2020-01-29 00:57:42 GMT -22.962496 -47.092083 18,425 217 294 -1728
2020-01-29 00:57:34 GMT -22.953140 -47.084457 18,750 217 295 -1920
2020-01-29 00:57:31 GMT -22.950073 -47.081959 18,750 217 295 -1920
2020-01-29 00:57:26 GMT -22.944809 -47.077713 18,875 217 295 -1856
2020-01-29 00:57:22 GMT -22.940826 -47.074516 18,975 217 295 -1856
2020-01-29 00:57:19 GMT -22.938171 -47.072372 19,050 217 296 -1792
2020-01-29 00:57:15 GMT -22.932655 -47.067921 19,250 217 296 -1856
2020-01-29 00:57:12 GMT -22.929794 -47.065628 19,275 217 297 -1856
2020-01-29 00:57:09 GMT -22.926464 -47.062988 19,350 217 297 -1856
2020-01-29 00:57:01 GMT -22.916885 -47.055344 19,600 217 299 -1792
2020-01-29 00:56:58 GMT -22.914230 -47.053246 19,675 217 299 -1920
2020-01-29 00:56:51 GMT -22.906128 -47.046852 19,900 217 299 -1984
2020-01-29 00:56:48 GMT -22.902769 -47.044220 19,975 217 299 -1920
2020-01-29 00:56:42 GMT -22.896021 -47.038929 21,275 217 302 -1344
2020-01-29 00:56:37 GMT -22.890381 -47.034470 20,225 217 301 -1856
2020-01-29 00:56:29 GMT -22.882101 -47.027790 20,575 217 302 -1408
2020-01-29 00:56:26 GMT -22.878052 -47.024536 20,600 217 302 -1344
2020-01-29 00:56:21 GMT -22.872437 -47.019985 20,700 217 302 -1408
2020-01-29 00:56:17 GMT -22.867716 -47.016144 20,800 217 303 -1408
2020-01-29 00:56:09 GMT -22.859344 -47.009399 20,975 217 304 -1536
2020-01-29 00:56:06 GMT -22.855270 -47.006104 21,050 217 305 -1600
2020-01-29 00:55:58 GMT -22.846207 -46.998814 21,250 217 305 -1600
2020-01-29 00:55:55 GMT -22.842764 -46.996105 21,325 217 305 -1600
2020-01-29 00:55:49 GMT -22.831871 -46.987305 21,525 217 305 -1664
2020-01-29 00:55:45 GMT -22.831871 -46.987305 21,625 217 306 -1600
2020-01-29 00:55:42 GMT -22.828705 -46.984760 21,650 217 305 -1536
2020-01-29 00:55:37 GMT -22.819069 -46.977131 21,800 217 306 -1536
2020-01-29 00:55:34 GMT -22.819069 -46.977131 21,850 217 306 -1600
2020-01-29 00:55:31 GMT -22.816322 -46.974995 21,900 217 306 -1664
2020-01-29 00:55:26 GMT -22.809898 -46.969910 22,050 217 307 -1536
2020-01-29 00:55:21 GMT -22.804138 -46.965405 22,175 217 307 -1280
2020-01-29 00:55:17 GMT -22.799284 -46.961567 22,250 217 308 -1216
2020-01-29 00:55:13 GMT -22.795395 -46.958462 22,350 217 310 -1088
2020-01-29 00:55:10 GMT -22.791687 -46.955517 22,375 217 311 -1088
2020-01-29 00:55:06 GMT -22.787521 -46.952221 22,425 217 311 -1152
2020-01-29 00:55:02 GMT -22.782152 -46.947887 22,525 217 313 -1408
2020-01-29 00:54:59 GMT -22.778687 -46.945080 22,575 217 313 -1536
2020-01-29 00:54:54 GMT -22.773102 -46.940586 22,700 217 313 -1600
2020-01-29 00:54:51 GMT -22.769585 -46.937763 22,750 217 314 -1152
2020-01-29 00:54:48 GMT -22.766279 -46.935120 22,825 217 316 -768
2020-01-29 00:54:43 GMT -22.759918 -46.930050 22,875 217 319 -448
2020-01-29 00:54:40 GMT -22.756073 -46.927052 22,900 217 320 -448
2020-01-29 00:54:37 GMT -22.748840 -46.921261 22,950 217 341 -448
2020-01-29 00:54:33 GMT -22.748840 -46.921261 22,950 217 327 -448
2020-01-29 00:54:29 GMT -22.742477 -46.916214 22,975 217 331 -448
2020-01-29 00:54:25 GMT -22.738300 -46.912891 23,000 217 334 -384
2020-01-29 00:54:22 GMT -22.734297 -46.909687 23,000 217 337 -384
2020-01-29 00:54:19 GMT -22.730759 -46.906891 23,025 217 339 -384
2020-01-29 00:54:16 GMT -22.723125 -46.900837 23,050 217 344 -448
2020-01-29 00:54:13 GMT -22.720566 -46.898804 23,075 217 348 -448
2020-01-29 00:54:07 GMT -22.715652 -46.894894 23,075 217 350 -512
2020-01-29 00:54:03 GMT -22.708553 -46.889294 23,100 217 352 -640
2020-01-29 00:54:00 GMT -22.706726 -46.887802 23,100 217 354 -896
2020-01-29 00:53:57 GMT -22.701416 -46.883606 23,200 217 356 -1280
2020-01-29 00:53:54 GMT -22.697428 -46.880444 23,300 217 356 -1216
2020-01-29 00:53:50 GMT -22.692902 -46.876816 23,325 217 356 -1216
2020-01-29 00:53:47 GMT -22.688095 -46.873020 23,375 217 356 -1216
2020-01-29 00:53:44 GMT -22.683838 -46.869572 23,425 217 357 -1216
2020-01-29 00:53:41 GMT -22.678482 -46.865330 23,575 217 358 -1152
2020-01-29 00:53:35 GMT -22.672337 -46.860455 23,600 217 358 -1152
2020-01-29 00:53:32 GMT -22.668055 -46.856995 23,675 217 359 -1152
2020-01-29 00:53:28 GMT -22.664017 -46.853794 23,700 217 359 -1216
2020-01-29 00:53:24 GMT -22.658112 -46.849098 23,775 217 361 -1216
2020-01-29 00:53:21 GMT -22.654907 -46.846500 23,900 217 361 -1216
2020-01-29 00:53:18 GMT -22.649506 -46.842209 23,925 217 361 -1216
2020-01-29 00:53:14 GMT -22.644653 -46.838364 23,975 217 361 -1216
2020-01-29 00:53:10 GMT -22.639801 -46.834469 24,025 217 362 -1216
2020-01-29 00:53:07 GMT -22.634628 -46.830395 24,125 217 363 -1216
2020-01-29 00:53:03 GMT -22.630301 -46.826935 24,150 217 363 -1216
2020-01-29 00:52:59 GMT -22.623001 -46.821083 24,250 217 363 -1152
2020-01-29 00:52:56 GMT -22.619453 -46.818287 24,325 217 364 -1152
2020-01-29 00:52:52 GMT -22.615952 -46.815441 24,375 217 364 -1152
2020-01-29 00:52:48 GMT -22.604836 -46.806488 24,500 217 364 -1152
2020-01-29 00:52:45 GMT -22.601019 -46.803436 24,550 217 364 -1152
2020-01-29 00:52:42 GMT -22.601019 -46.803436 24,575 217 364 -1152
2020-01-29 00:52:36 GMT -22.592918 -46.796925 24,675 217 365 -1216
2020-01-29 00:52:32 GMT -22.587473 -46.792553 24,775 217 366 -1216
2020-01-29 00:52:29 GMT -22.582809 -46.788822 24,825 217 367 -1216
2020-01-29 00:52:25 GMT -22.577602 -46.784668 24,900 217 368 -1216
2020-01-29 00:52:22 GMT -22.573517 -46.781384 24,950 217 369 -1152
2020-01-29 00:52:18 GMT -22.567175 -46.776325 25,025 217 370 -1152
2020-01-29 00:52:14 GMT -22.562752 -46.772816 25,050 217 371 -1152
2020-01-29 00:52:10 GMT -22.556351 -46.767750 25,175 217 372 -1152
2020-01-29 00:52:06 GMT -22.553009 -46.765152 25,250 217 372 -1152
2020-01-29 00:52:03 GMT -22.548275 -46.761372 25,250 217 372 -1152
2020-01-29 00:51:59 GMT -22.541336 -46.755917 25,375 217 371 -1152
2020-01-29 00:51:56 GMT -22.538824 -46.753948 25,400 217 370 -1152
2020-01-29 00:51:52 GMT -22.532410 -46.748924 25,475 217 370 -1216
2020-01-29 00:51:48 GMT -22.527420 -46.745029 25,550 217 370 -1216
2020-01-29 00:51:45 GMT -22.522160 -46.740875 25,650 217 370 -1216
2020-01-29 00:51:42 GMT -22.517944 -46.737637 25,650 217 370 -1216
2020-01-29 00:51:38 GMT -22.512104 -46.733044 25,750 217 372 -1216
2020-01-29 00:51:33 GMT -22.506226 -46.728451 25,850 216 373 -1216
2020-01-29 00:51:30 GMT -22.496975 -46.721241 25,925 216 374 -1216
2020-01-29 00:51:27 GMT -22.496975 -46.721241 25,950 216 375 -1216
2020-01-29 00:51:24 GMT -22.493576 -46.718647 26,000 216 376 -1216
2020-01-29 00:51:21 GMT -22.488503 -46.714680 26,125 216 376 -1216
2020-01-29 00:51:16 GMT -22.481659 -46.709393 26,125 216 378 -1216
2020-01-29 00:51:13 GMT -22.477386 -46.706078 26,225 216 379 -1216
2020-01-29 00:51:10 GMT -22.473404 -46.703030 26,225 216 379 -1216
2020-01-29 00:51:06 GMT -22.467133 -46.698135 26,325 216 379 -1216
2020-01-29 00:51:03 GMT -22.462294 -46.694336 26,400 217 379 -1216
2020-01-29 00:51:00 GMT -22.458849 -46.691639 26,425 217 379 -1216
2020-01-29 00:50:57 GMT -22.454891 -46.688488 26,550 216 380 -1088
2020-01-29 00:50:53 GMT -22.450329 -46.684925 26,575 215 380 -1024
2020-01-29 00:50:50 GMT -22.444418 -46.680706 26,650 211 382 -832
2020-01-29 00:50:47 GMT -22.441996 -46.679180 26,675 209 383 -832
2020-01-29 00:50:44 GMT -22.434677 -46.675114 26,750 203 386 -704
2020-01-29 00:50:38 GMT -22.424606 -46.670921 26,875 196 390 -640
2020-01-29 00:50:34 GMT -22.418627 -46.669159 26,925 193 391 -640
2020-01-29 00:50:31 GMT -22.411505 -46.667583 26,950 192 393 -640
2020-01-29 00:50:27 GMT -22.405289 -46.666725 27,075 183 398 -1024
2020-01-29 00:50:23 GMT -22.398981 -46.666462 27,150 179 401 -1152
2020-01-29 00:50:20 GMT -22.392654 -46.666725 27,275 172 404 -1536
2020-01-29 00:50:16 GMT -22.385147 -46.667774 27,425 168 407 -1536
2020-01-29 00:50:12 GMT -22.377731 -46.669472 27,575 165 410 -1984
2020-01-29 00:50:08 GMT -22.368536 -46.672009 27,750 164 411 -2432
2020-01-29 00:50:04 GMT -22.364456 -46.673218 27,800 164 411 -2432
2020-01-29 00:50:01 GMT -22.357819 -46.675114 27,975 164 412 -2432
2020-01-29 00:49:57 GMT -22.348612 -46.677753 28,150 164 412 -2432
2020-01-29 00:49:54 GMT -22.340103 -46.680210 28,275 164 412 -2432
2020-01-29 00:49:51 GMT -22.340103 -46.680210 28,375 164 412 -2432
2020-01-29 00:49:48 GMT -22.332733 -46.682358 28,475 164 412 -2432
2020-01-29 00:49:44 GMT -22.325317 -46.684456 28,625 165 412 -2432
2020-01-29 00:49:40 GMT -22.317215 -46.686802 28,800 165 412 -2368
2020-01-29 00:49:36 GMT -22.304581 -46.690395 29,025 165 413 -2176
2020-01-29 00:49:29 GMT -22.298288 -46.692200 29,150 165 415 -2176
2020-01-29 00:49:25 GMT -22.289749 -46.694641 29,275 165 415 -2240
2020-01-29 00:49:21 GMT -22.283392 -46.696472 29,425 164 416 -2240
2020-01-29 00:49:18 GMT -22.268097 -46.700882 29,525 164 416 -2240
2020-01-29 00:49:14 GMT -22.268097 -46.700882 29,650 164 417 -2240
2020-01-29 00:49:11 GMT -22.258347 -46.703629 29,875 165 418 -2240
2020-01-29 00:49:07 GMT -22.258347 -46.703629 29,900 165 418 -2240
2020-01-29 00:49:03 GMT -22.250481 -46.705883 30,050 165 419 -2240
2020-01-29 00:49:00 GMT -22.243731 -46.707867 30,200 164 420 -2240
2020-01-29 00:48:57 GMT -22.238068 -46.709473 30,275 164 420 -2240
2020-01-29 00:48:53 GMT -22.227901 -46.712391 30,425 165 421 -2240
2020-01-29 00:48:50 GMT -22.224518 -46.713367 30,600 164 421 -2304
2020-01-29 00:48:46 GMT -22.217697 -46.715317 30,650 164 421 -2240
2020-01-29 00:48:42 GMT -22.211283 -46.717175 30,775 164 422 -2240
2020-01-29 00:48:39 GMT -22.204487 -46.719158 30,875 164 422 -2240
2020-01-29 00:48:35 GMT -22.198059 -46.721008 31,025 164 422 -2304
2020-01-29 00:48:30 GMT -22.187077 -46.724194 31,250 164 423 -2240
2020-01-29 00:48:27 GMT -22.180979 -46.725971 31,325 164 424 -2240
2020-01-29 00:48:24 GMT -22.176414 -46.727295 31,425 164 424 -2240
2020-01-29 00:48:21 GMT -22.168442 -46.729649 31,575 164 425 -2240
2020-01-29 00:48:17 GMT -22.161983 -46.731567 31,700 164 426 -2304
2020-01-29 00:48:14 GMT -22.157043 -46.732994 31,775 164 426 -2368
2020-01-29 00:48:07 GMT -22.142944 -46.737164 32,200 164 427 -2304
2020-01-29 00:48:04 GMT -22.139128 -46.738281 32,150 164 427 -2304
2020-01-29 00:48:01 GMT -22.132599 -46.740135 32,250 164 427 -2304
2020-01-29 00:47:58 GMT -22.126465 -46.741932 32,325 164 427 -2304
2020-01-29 00:47:55 GMT -22.119947 -46.743824 32,525 164 428 -2304
2020-01-29 00:47:52 GMT -22.115339 -46.745148 32,675 164 428 -2240
2020-01-29 00:47:49 GMT -22.109985 -46.746674 32,775 165 429 -2304
2020-01-29 00:47:45 GMT -22.100721 -46.749317 32,900 165 429 -2304
2020-01-29 00:47:42 GMT -22.094578 -46.751099 32,950 165 430 -2304
2020-01-29 00:47:37 GMT -22.084568 -46.753895 33,150 165 430 -2304
2020-01-29 00:47:31 GMT -22.074921 -46.756615 33,275 165 430 -2304
2020-01-29 00:47:28 GMT -22.068741 -46.758362 33,450 165 431 -2304
2020-01-29 00:47:25 GMT -22.062130 -46.760254 33,575 165 431 -2304
2020-01-29 00:47:22 GMT -22.056335 -46.761856 33,700 165 431 -2304
2020-01-29 00:47:16 GMT -22.047466 -46.764374 33,850 165 432 -2304
2020-01-29 00:47:13 GMT -22.038528 -46.766899 34,025 165 432 -2304
2020-01-29 00:47:10 GMT -22.032709 -46.768543 34,125 165 432 -2368
2020-01-29 00:47:06 GMT -22.025345 -46.770596 34,275 165 433 -2368
2020-01-29 00:47:02 GMT -22.018387 -46.772545 34,475 165 433 -2368
2020-01-29 00:46:59 GMT -22.012161 -46.774292 34,525 165 433 -2368
2020-01-29 00:46:55 GMT -22.003195 -46.776836 34,700 165 433 -2368
2020-01-29 00:46:51 GMT -21.996212 -46.778820 34,875 165 433 -2368
2020-01-29 00:46:48 GMT -21.991556 -46.780140 34,925 165 433 -2368
2020-01-29 00:46:43 GMT -21.982199 -46.782787 35,150 165 433 -2432
2020-01-29 00:46:40 GMT -21.974424 -46.785023 35,150 165 433 -2432
2020-01-29 00:46:37 GMT -21.970917 -46.786026 35,300 165 434 -2368
2020-01-29 00:46:34 GMT -21.962357 -46.788475 35,475 165 434 -2368
2020-01-29 00:46:30 GMT -21.955757 -46.790363 35,625 165 434 -2368
2020-01-29 00:46:27 GMT -21.940163 -46.794788 35,900 165 436 -1792
2020-01-29 00:46:22 GMT -21.940163 -46.794788 35,900 165 435 -2240
2020-01-29 00:46:19 GMT -21.933878 -46.796570 36,025 165 436 -2048
2020-01-29 00:46:16 GMT -21.928432 -46.798096 36,125 165 436 -1792
2020-01-29 00:46:11 GMT -21.919819 -46.800587 36,250 165 438 -1728
2020-01-29 00:46:08 GMT -21.912323 -46.802708 36,300 165 438 -1792
2020-01-29 00:46:05 GMT -21.906412 -46.804401 36,375 164 440 -1792
2020-01-29 00:46:02 GMT -21.899734 -46.806351 36,525 165 441 -1792
2020-01-29 00:45:57 GMT -21.892166 -46.808472 36,600 165 442 -1792
2020-01-29 00:45:53 GMT -21.885836 -46.810303 36,700 165 444 -1536
2020-01-29 00:45:50 GMT -21.876247 -46.813000 36,775 165 445 -1152
2020-01-29 00:45:47 GMT -21.870661 -46.814575 36,875 165 448 -640
2020-01-29 00:45:44 GMT -21.864624 -46.816292 36,925 165 448 -640
2020-01-29 00:45:40 GMT -21.854965 -46.819035 36,975 165 450 -256
2020-01-29 00:45:34 GMT -21.846085 -46.821583 36,975 165 451 -128
2020-01-29 00:45:31 GMT -21.837982 -46.823879 37,000 165 452 -64
2020-01-29 00:45:28 GMT -21.833908 -46.825027 37,000 165 452 -64
2020-01-29 00:45:25 GMT -21.827042 -46.826984 37,000 165 452 -64
2020-01-29 00:45:22 GMT -21.820129 -46.828976 37,000 165 452 0
2020-01-29 00:45:18 GMT -21.805952 -46.832989 37,000 165 452 0
2020-01-29 00:45:15 GMT -21.805952 -46.832989 37,000 165 452 0
2020-01-29 00:45:12 GMT -21.800274 -46.834614 37,000 165 452 0
2020-01-29 00:45:09 GMT -21.794220 -46.836315 37,000 165 452 0
2020-01-29 00:45:03 GMT -21.780813 -46.840160 37,000 165 453 64
2020-01-29 00:44:59 GMT -21.768663 -46.843616 37,000 165 453 64
2020-01-29 00:44:52 GMT -21.760117 -46.846054 37,000 165 454 0
2020-01-29 00:44:48 GMT -21.750742 -46.848705 37,000 165 454 -64
2020-01-29 00:44:40 GMT -21.734848 -46.853245 37,000 165 455 -64
2020-01-29 00:44:37 GMT -21.723450 -46.856491 37,000 165 455 -64
2020-01-29 00:44:30 GMT -21.716125 -46.858585 37,000 165 455 0
2020-01-29 00:44:27 GMT -21.703445 -46.862183 37,000 165 455 0
2020-01-29 00:44:19 GMT -21.694061 -46.864880 37,000 164 455 0
2020-01-29 00:44:16 GMT -21.685913 -46.867176 37,000 164 455 0
2020-01-29 00:44:09 GMT -21.672441 -46.871033 37,000 165 456 0
2020-01-29 00:44:06 GMT -21.656893 -46.875458 37,000 165 456 -64
2020-01-29 00:44:02 GMT -21.656893 -46.875458 37,000 165 456 0
2020-01-29 00:43:58 GMT -21.650757 -46.877213 37,000 165 457 0
2020-01-29 00:43:55 GMT -21.644211 -46.879112 37,000 165 457 0
2020-01-29 00:43:52 GMT -21.636841 -46.881210 37,000 165 457 64
2020-01-29 00:43:46 GMT -21.625351 -46.884506 37,000 164 457 0
2020-01-29 00:43:42 GMT -21.616333 -46.887100 37,000 164 457 0
2020-01-29 00:43:39 GMT -21.603195 -46.890846 37,000 164 458 -64
2020-01-29 00:43:35 GMT -21.603195 -46.890846 37,000 164 458 0
2020-01-29 00:43:32 GMT -21.593767 -46.893566 37,000 164 458 0
2020-01-29 00:43:29 GMT -21.590462 -46.894531 37,000 165 459 0
2020-01-29 00:43:26 GMT -21.576920 -46.898388 37,000 164 459 0
2020-01-29 00:43:23 GMT -21.576920 -46.898388 37,000 164 459 0
2020-01-29 00:43:19 GMT -21.570328 -46.900284 37,000 165 459 0
2020-01-29 00:43:16 GMT -21.562485 -46.902515 37,000 165 460 -64
2020-01-29 00:43:12 GMT -21.554672 -46.904732 37,000 165 460 -64
2020-01-29 00:43:08 GMT -21.547256 -46.906826 37,000 165 460 0
2020-01-29 00:43:05 GMT -21.541071 -46.908569 37,000 165 460 0
2020-01-29 00:43:02 GMT -21.534027 -46.910572 37,000 165 460 0
2020-01-29 00:42:59 GMT -21.529083 -46.911972 37,000 165 460 0
2020-01-29 00:42:56 GMT -21.522032 -46.913910 37,000 165 460 0
2020-01-29 00:42:53 GMT -21.517935 -46.915081 37,000 165 460 64
2020-01-29 00:42:49 GMT -21.505505 -46.918591 37,000 165 461 0
2020-01-29 00:42:45 GMT -21.491913 -46.922459 37,000 165 461 0
2020-01-29 00:42:42 GMT -21.491913 -46.922459 37,000 165 461 -64
2020-01-29 00:42:38 GMT -21.485275 -46.924355 37,000 165 461 -64
2020-01-29 00:42:34 GMT -21.476597 -46.926777 37,000 165 461 0
2020-01-29 00:42:31 GMT -21.470823 -46.928455 37,000 165 461 0
2020-01-29 00:42:27 GMT -21.465004 -46.930084 37,000 165 461 64
2020-01-29 00:42:22 GMT -21.451782 -46.933849 37,000 165 461 0
2020-01-29 00:42:19 GMT -21.444763 -46.935841 37,000 165 461 0
2020-01-29 00:42:16 GMT -21.442291 -46.936539 37,000 165 461 0
2020-01-29 00:42:13 GMT -21.433580 -46.938984 37,000 165 461 0
2020-01-29 00:42:10 GMT -21.426132 -46.941120 37,000 165 461 0
2020-01-29 00:42:07 GMT -21.419523 -46.942951 37,000 165 461 0
2020-01-29 00:42:02 GMT -21.411667 -46.945179 37,000 165 461 0
2020-01-29 00:41:59 GMT -21.404627 -46.947174 37,000 165 462 0
2020-01-29 00:41:56 GMT -21.397177 -46.949261 37,000 165 462 0
2020-01-29 00:41:52 GMT -21.389729 -46.951344 37,000 165 462 0
2020-01-29 00:41:48 GMT -21.374832 -46.955566 37,000 165 462 0
2020-01-29 00:41:45 GMT -21.374832 -46.955566 37,000 165 462 0
2020-01-29 00:41:40 GMT -21.364870 -46.958363 37,000 165 462 0
2020-01-29 00:41:37 GMT -21.359482 -46.959862 37,000 165 462 0
2020-01-29 00:41:34 GMT -21.352442 -46.961872 37,000 165 462 0
2020-01-29 00:41:31 GMT -21.344946 -46.964008 37,000 165 462 64
2020-01-29 00:41:27 GMT -21.329590 -46.968349 37,000 165 462 0
2020-01-29 00:41:23 GMT -21.329590 -46.968349 37,000 165 463 0
2020-01-29 00:41:20 GMT -21.323393 -46.970112 37,000 165 463 -64
2020-01-29 00:41:16 GMT -21.315491 -46.972397 37,000 165 463 0
2020-01-29 00:41:10 GMT -21.302629 -46.976013 37,000 165 463 0
2020-01-29 00:41:07 GMT -21.295578 -46.978039 37,000 165 463 0
2020-01-29 00:41:04 GMT -21.289316 -46.979828 37,000 165 463 -64
2020-01-29 00:40:59 GMT -21.279785 -46.982533 37,000 165 463 -64
2020-01-29 00:40:55 GMT -21.270630 -46.985130 37,000 165 463 0
2020-01-29 00:40:51 GMT -21.262344 -46.987476 37,000 165 463 0
2020-01-29 00:40:48 GMT -21.256916 -46.988983 37,000 165 462 0
2020-01-29 00:40:44 GMT -21.248199 -46.991470 37,000 165 462 0
2020-01-29 00:40:40 GMT -21.239506 -46.993969 37,000 164 462 0
2020-01-29 00:40:36 GMT -21.234524 -46.995392 37,000 164 462 0
2020-01-29 00:40:33 GMT -21.228333 -46.997166 37,000 164 462 0
2020-01-29 00:40:30 GMT -21.222141 -46.998901 37,000 164 461 0
2020-01-29 00:40:26 GMT -21.211761 -47.001858 37,000 164 461 0
2020-01-29 00:40:23 GMT -21.205568 -47.003632 37,000 164 461 0
2020-01-29 00:40:20 GMT -21.198957 -47.005512 37,000 165 461 64
2020-01-29 00:40:16 GMT -21.190672 -47.007904 37,000 165 461 64
2020-01-29 00:40:13 GMT -21.183655 -47.009899 37,000 165 461 0
2020-01-29 00:40:10 GMT -21.176613 -47.011921 37,000 165 461 -64
2020-01-29 00:40:07 GMT -21.171249 -47.013443 37,000 165 461 0
2020-01-29 00:40:04 GMT -21.167953 -47.014343 37,000 165 461 -64
2020-01-29 00:40:01 GMT -21.153477 -47.018433 37,000 165 461 0
2020-01-29 00:39:58 GMT -21.153477 -47.018433 37,000 165 460 0
2020-01-29 00:39:55 GMT -21.146439 -47.020435 37,000 165 460 0
2020-01-29 00:39:51 GMT -21.139847 -47.022282 37,000 165 460 64
2020-01-29 00:39:48 GMT -21.134079 -47.023930 37,000 165 460 0
2020-01-29 00:39:44 GMT -21.124969 -47.026478 37,000 165 461 -64
2020-01-29 00:39:39 GMT -21.115442 -47.029163 37,000 165 461 64
2020-01-29 00:39:32 GMT -21.100983 -47.033218 37,000 165 461 0
2020-01-29 00:39:29 GMT -21.092697 -47.035568 37,000 165 461 -64
2020-01-29 00:39:22 GMT -21.076572 -47.040100 37,000 165 461 0
2020-01-29 00:39:17 GMT -21.067886 -47.042557 37,000 165 461 0
2020-01-29 00:39:12 GMT -21.057953 -47.045357 37,000 165 461 0
2020-01-29 00:39:09 GMT -21.051714 -47.047070 37,000 165 461 0
2020-01-29 00:39:06 GMT -21.036024 -47.051544 37,000 165 461 0
2020-01-29 00:39:01 GMT -21.036024 -47.051544 37,000 165 461 0
2020-01-29 00:38:57 GMT -21.027739 -47.053844 37,000 165 461 0
2020-01-29 00:38:54 GMT -21.021919 -47.055492 37,000 165 461 0
2020-01-29 00:38:49 GMT -21.012005 -47.058289 37,000 165 461 0
2020-01-29 00:38:45 GMT -21.003717 -47.060635 37,000 165 461 64
2020-01-29 00:38:39 GMT -20.989243 -47.064693 37,000 165 461 0
2020-01-29 00:38:34 GMT -20.981373 -47.066929 37,000 165 461 0
2020-01-29 00:38:29 GMT -20.968943 -47.070423 37,000 165 461 0
2020-01-29 00:38:26 GMT -20.956970 -47.073769 37,000 165 462 0
2020-01-29 00:38:18 GMT -20.942871 -47.077740 37,000 165 461 0
2020-01-29 00:38:12 GMT -20.936234 -47.079605 37,000 165 462 0
2020-01-29 00:38:08 GMT -20.919271 -47.084354 37,000 165 462 -64
2020-01-29 00:38:01 GMT -20.910553 -47.086765 37,000 165 461 0
2020-01-29 00:37:57 GMT -20.904329 -47.088501 37,000 165 461 0
2020-01-29 00:37:54 GMT -20.896500 -47.090687 37,000 165 461 0
2020-01-29 00:37:51 GMT -20.890270 -47.092445 37,000 165 461 0
2020-01-29 00:37:46 GMT -20.880356 -47.095192 37,000 165 461 0
2020-01-29 00:37:43 GMT -20.875809 -47.096478 37,000 165 461 0
2020-01-29 00:37:39 GMT -20.865503 -47.099339 37,000 165 460 0
2020-01-29 00:37:36 GMT -20.859686 -47.100937 37,000 165 460 0
2020-01-29 00:37:31 GMT -20.844406 -47.105206 37,000 165 460 -64
2020-01-29 00:37:28 GMT -20.844406 -47.105206 37,000 165 460 0
2020-01-29 00:37:24 GMT -20.836596 -47.107426 37,000 165 460 0
2020-01-29 00:37:21 GMT -20.829147 -47.109474 37,000 165 459 64
2020-01-29 00:37:17 GMT -20.821335 -47.111729 37,000 164 459 0
2020-01-29 00:37:13 GMT -20.814342 -47.113720 37,000 164 459 0
2020-01-29 00:37:07 GMT -20.798702 -47.118114 37,000 165 459 64
2020-01-29 00:37:04 GMT -20.792929 -47.119762 37,000 165 459 64
2020-01-29 00:36:56 GMT -20.773146 -47.125305 37,000 165 460 -64
2020-01-29 00:36:53 GMT -20.770632 -47.126003 37,000 165 460 -64
2020-01-29 00:36:50 GMT -20.766535 -47.127151 37,000 165 460 -64
2020-01-29 00:36:47 GMT -20.759132 -47.129250 37,000 165 460 0
2020-01-29 00:36:42 GMT -20.748379 -47.132248 37,000 165 460 0
2020-01-29 00:36:39 GMT -20.744236 -47.133396 37,000 165 460 0
2020-01-29 00:36:36 GMT -20.736834 -47.135490 37,000 165 459 0
2020-01-29 00:36:32 GMT -20.727757 -47.138039 37,000 165 459 0
2020-01-29 00:36:28 GMT -20.722031 -47.139637 37,000 165 459 0
2020-01-29 00:36:25 GMT -20.714582 -47.141735 37,000 165 459 0
2020-01-29 00:36:21 GMT -20.706343 -47.144032 37,000 165 459 -64
2020-01-29 00:36:18 GMT -20.700165 -47.145767 37,000 165 459 0
2020-01-29 00:36:15 GMT -20.691925 -47.148071 37,000 165 459 0
2020-01-29 00:36:10 GMT -20.681259 -47.151066 37,000 165 459 64
2020-01-29 00:36:04 GMT -20.669724 -47.154301 37,000 165 459 0
2020-01-29 00:36:00 GMT -20.655321 -47.158363 37,000 165 459 64
2020-01-29 00:35:53 GMT -20.645405 -47.161110 37,000 165 459 0
2020-01-29 00:35:48 GMT -20.635941 -47.163815 37,000 165 459 0
2020-01-29 00:35:44 GMT -20.625275 -47.166809 37,000 165 459 0
2020-01-29 00:35:39 GMT -20.617428 -47.169052 37,000 165 460 0
2020-01-29 00:35:35 GMT -20.602158 -47.173332 37,000 165 460 -64
2020-01-29 00:35:31 GMT -20.602158 -47.173332 37,000 165 460 -64
2020-01-29 00:35:28 GMT -20.585632 -47.177990 37,000 165 460 0
2020-01-29 00:35:23 GMT -20.585632 -47.177990 37,000 165 461 64
2020-01-29 00:35:20 GMT -20.579865 -47.179607 37,000 165 461 64
2020-01-29 00:35:17 GMT -20.567848 -47.182983 37,000 165 461 0
2020-01-29 00:35:13 GMT -20.567848 -47.182983 37,000 165 461 0
2020-01-29 00:35:09 GMT -20.555878 -47.186378 37,000 165 462 0
2020-01-29 00:35:05 GMT -20.548416 -47.188484 37,000 165 462 0
2020-01-29 00:34:59 GMT -20.534704 -47.192322 37,000 165 462 -64
2020-01-29 00:34:56 GMT -20.529327 -47.193832 37,000 165 462 0
2020-01-29 00:34:53 GMT -20.523514 -47.195499 37,000 165 462 0
2020-01-29 00:34:50 GMT -20.520218 -47.196430 37,000 165 463 0
2020-01-29 00:34:47 GMT -20.513149 -47.198414 37,000 165 463 64
2020-01-29 00:34:44 GMT -20.507332 -47.200012 37,000 165 463 64
2020-01-29 00:34:41 GMT -20.501129 -47.201778 37,000 165 463 64
2020-01-29 00:34:38 GMT -20.491150 -47.204525 37,000 165 463 -64
2020-01-29 00:34:35 GMT -20.486160 -47.205948 37,000 165 463 -64
2020-01-29 00:34:30 GMT -20.478699 -47.208008 37,000 165 463 0
2020-01-29 00:34:24 GMT -20.462906 -47.212421 37,000 165 463 -64
2020-01-29 00:34:19 GMT -20.446289 -47.217129 37,000 165 463 0
2020-01-29 00:34:16 GMT -20.446289 -47.217129 37,025 165 463 0
2020-01-29 00:34:13 GMT -20.440855 -47.218639 37,025 165 463 0
2020-01-29 00:34:09 GMT -20.434244 -47.220486 37,025 165 462 0
2020-01-29 00:34:06 GMT -20.425913 -47.222782 37,025 165 462 0
2020-01-29 00:34:00 GMT -20.414749 -47.225960 37,025 165 461 64
2020-01-29 00:33:52 GMT -20.386688 -47.233757 37,000 165 456 0
2020-01-29 00:33:46 GMT -20.386688 -47.233757 37,000 165 456 0
2020-01-29 00:33:37 GMT -20.369118 -47.238613 37,000 165 452 0
2020-01-29 00:33:27 GMT -20.346039 -47.244987 37,000 165 448 0
2020-01-29 00:33:20 GMT -20.331573 -47.249008 37,000 165 445 -64
2020-01-29 00:33:17 GMT -20.325592 -47.250648 37,025 165 444 -64
2020-01-29 00:33:09 GMT -20.310837 -47.254799 37,025 165 441 64
2020-01-29 00:33:05 GMT -20.302547 -47.257092 37,000 165 440 0
2020-01-29 00:32:52 GMT -20.277695 -47.264065 37,000 165 439 0
2020-01-29 00:32:45 GMT -20.263071 -47.268127 37,000 165 440 0
2020-01-29 00:32:42 GMT -20.257141 -47.269806 37,000 165 440 0
2020-01-29 00:32:34 GMT -20.240570 -47.274414 37,000 165 440 0
2020-01-29 00:32:30 GMT -20.234253 -47.276180 37,000 165 440 0
2020-01-29 00:32:23 GMT -20.218460 -47.280594 37,000 165 440 64
2020-01-29 00:32:19 GMT -20.213745 -47.281918 37,000 165 440 64
2020-01-29 00:32:15 GMT -20.204269 -47.284569 37,000 165 440 -64
2020-01-29 00:32:09 GMT -20.191986 -47.288002 37,000 165 440 -64
2020-01-29 00:32:04 GMT -20.184118 -47.290199 37,000 165 440 -64
2020-01-29 00:32:01 GMT -20.176205 -47.292397 37,000 165 439 0
2020-01-29 00:31:58 GMT -20.169874 -47.294144 37,000 165 439 0
2020-01-29 00:31:55 GMT -20.163208 -47.296043 37,000 165 439 0
2020-01-29 00:31:50 GMT -20.147415 -47.300461 37,000 165 439 0
2020-01-29 00:31:44 GMT -20.141523 -47.302086 37,000 165 439 64
2020-01-29 00:31:37 GMT -20.127325 -47.306080 37,000 165 439 0
2020-01-29 00:31:32 GMT -20.120995 -47.307827 37,000 165 439 -64
2020-01-29 00:31:29 GMT -20.111938 -47.310368 37,000 165 440 -64
2020-01-29 00:31:25 GMT -20.106400 -47.311886 37,000 165 440 64
2020-01-29 00:31:21 GMT -20.099720 -47.313770 37,000 165 440 64
2020-01-29 00:31:18 GMT -20.083893 -47.318115 37,000 165 440 64
2020-01-29 00:31:12 GMT -20.078354 -47.319664 37,000 165 440 128
2020-01-29 00:31:07 GMT -20.068901 -47.322311 37,000 165 440 0
2020-01-29 00:31:04 GMT -20.063362 -47.323856 37,000 165 440 -64
2020-01-29 00:31:01 GMT -20.058243 -47.325275 37,000 165 440 -64
2020-01-29 00:30:55 GMT -20.046387 -47.328609 37,000 165 440 0
2020-01-29 00:30:52 GMT -20.041626 -47.329933 37,000 165 440 0
2020-01-29 00:30:48 GMT -20.034128 -47.332047 37,000 165 440 64
2020-01-29 00:30:42 GMT -20.017960 -47.336555 37,000 165 440 0
2020-01-29 00:30:39 GMT -20.013597 -47.337742 37,000 165 440 0
2020-01-29 00:30:33 GMT -20.002167 -47.340973 37,000 165 440 0
2020-01-29 00:30:29 GMT -19.995443 -47.342834 37,000 165 440 -64
2020-01-29 00:30:24 GMT -19.986738 -47.345280 37,000 165 440 0
2020-01-29 00:30:21 GMT -19.972916 -47.349159 37,000 165 440 0
2020-01-29 00:30:18 GMT -19.972916 -47.349159 37,000 165 440 0
2020-01-29 00:30:12 GMT -19.960281 -47.352692 37,000 165 440 -64
2020-01-29 00:30:08 GMT -19.952362 -47.354900 37,000 165 440 0
2020-01-29 00:30:00 GMT -19.937347 -47.359070 37,000 165 440 0
2020-01-29 00:29:56 GMT -19.928268 -47.361610 37,000 165 440 0
2020-01-29 00:29:53 GMT -19.922728 -47.363110 37,000 165 440 0
2020-01-29 00:29:50 GMT -19.916794 -47.364758 37,000 165 440 0
2020-01-29 00:29:44 GMT -19.908096 -47.367210 37,000 165 440 0
2020-01-29 00:29:39 GMT -19.896240 -47.370495 37,000 165 440 0
2020-01-29 00:29:35 GMT -19.886372 -47.373245 37,000 165 440 0
2020-01-29 00:29:27 GMT -19.874084 -47.376675 37,000 165 441 0
2020-01-29 00:29:24 GMT -19.866165 -47.378883 37,000 165 441 0
2020-01-29 00:29:18 GMT -19.853132 -47.382484 37,000 165 441 0
2020-01-29 00:29:13 GMT -19.845219 -47.384682 37,000 165 441 0
2020-01-29 00:29:07 GMT -19.831329 -47.388496 37,000 165 442 -64
2020-01-29 00:29:02 GMT -19.821808 -47.391094 37,000 165 441 0
2020-01-29 00:28:56 GMT -19.810305 -47.394222 37,000 165 441 0
2020-01-29 00:28:52 GMT -19.801554 -47.396568 37,000 165 440 0
2020-01-29 00:28:44 GMT -19.788099 -47.400265 37,000 165 441 64
2020-01-29 00:28:37 GMT -19.771435 -47.404808 37,000 165 442 0
2020-01-29 00:28:33 GMT -19.766281 -47.406200 37,000 165 442 64
2020-01-29 00:28:29 GMT -19.755981 -47.409046 37,000 165 442 0
2020-01-29 00:28:24 GMT -19.746414 -47.411694 37,000 165 442 0
2020-01-29 00:28:20 GMT -19.724167 -47.417873 37,000 165 443 0
2020-01-29 00:28:13 GMT -19.724167 -47.417873 37,000 165 443 0
2020-01-29 00:28:09 GMT -19.717434 -47.419739 37,000 165 443 -64
2020-01-29 00:27:59 GMT -19.696335 -47.425625 37,000 165 443 64
2020-01-29 00:27:51 GMT -19.682379 -47.429527 37,000 165 444 0
2020-01-29 00:27:48 GMT -19.675211 -47.431522 37,000 165 444 0
2020-01-29 00:27:37 GMT -19.653259 -47.437592 37,000 165 444 -64
2020-01-29 00:27:27 GMT -19.632523 -47.443378 37,000 165 444 0
2020-01-29 00:27:16 GMT -19.611387 -47.449253 37,000 165 444 0
2020-01-29 00:27:13 GMT -19.605009 -47.451050 37,000 165 444 0
2020-01-29 00:27:04 GMT -19.588669 -47.455589 37,000 165 444 0
2020-01-29 00:27:01 GMT -19.581482 -47.457603 37,000 165 444 0
2020-01-29 00:26:54 GMT -19.567154 -47.461624 37,000 165 443 0
2020-01-29 00:26:51 GMT -19.562393 -47.462948 37,000 165 443 0
2020-01-29 00:26:43 GMT -19.544445 -47.467979 37,000 165 443 64
2020-01-29 00:26:39 GMT -19.539698 -47.469326 37,000 165 443 64
2020-01-29 00:26:32 GMT -19.526150 -47.473122 37,000 165 443 0
2020-01-29 00:26:28 GMT -19.518190 -47.475368 37,000 165 444 0
2020-01-29 00:26:22 GMT -19.502655 -47.479671 37,000 165 444 -64
2020-01-29 00:26:18 GMT -19.495844 -47.481564 37,000 165 444 0
2020-01-29 00:26:10 GMT -19.479086 -47.486256 37,000 165 445 0
2020-01-29 00:26:07 GMT -19.473083 -47.487911 37,000 165 445 0
2020-01-29 00:25:59 GMT -19.456694 -47.492397 37,000 165 445 0
2020-01-29 00:25:56 GMT -19.452690 -47.493496 37,000 165 445 0
2020-01-29 00:25:49 GMT -19.431519 -47.499340 37,000 165 445 0
2020-01-29 00:25:45 GMT -19.431519 -47.499340 37,000 165 445 0
2020-01-29 00:25:38 GMT -19.415543 -47.503708 37,000 165 445 0
2020-01-29 00:25:25 GMT -19.389519 -47.510925 37,000 165 445 0
2020-01-29 00:25:13 GMT -19.365921 -47.517441 37,000 165 445 64
2020-01-29 00:25:01 GMT -19.342316 -47.523960 37,000 165 446 -64
2020-01-29 00:24:54 GMT -19.329895 -47.527393 37,000 165 445 0
2020-01-29 00:24:51 GMT -19.324310 -47.528965 37,000 165 445 0
2020-01-29 00:24:42 GMT -19.303482 -47.534702 37,000 165 445 64
2020-01-29 00:24:31 GMT -19.281519 -47.540787 37,000 165 445 0
2020-01-29 00:24:20 GMT -19.259964 -47.546680 37,000 165 444 0
2020-01-29 00:24:09 GMT -19.238800 -47.552505 37,000 165 444 0
2020-01-29 00:23:54 GMT -19.208059 -47.560913 37,000 165 444 -64
2020-01-29 00:23:44 GMT -19.179749 -47.568596 37,000 165 444 -64
2020-01-29 00:23:30 GMT -19.159836 -47.573990 37,000 165 444 -64
2020-01-29 00:23:19 GMT -19.138697 -47.579739 37,000 165 443 64
2020-01-29 00:23:02 GMT -19.106110 -47.588879 37,000 165 443 192
2020-01-29 00:22:58 GMT -19.098242 -47.591476 37,000 160 444 64
2020-01-29 00:22:44 GMT -19.069426 -47.602013 37,000 160 444 -64
2020-01-29 00:22:37 GMT -19.056206 -47.606857 37,000 160 444 0
2020-01-29 00:22:25 GMT -19.033310 -47.615334 37,000 160 444 64
2020-01-29 00:22:14 GMT -19.013855 -47.622444 37,000 160 443 0
2020-01-29 00:22:03 GMT -18.990147 -47.631176 37,000 160 443 0
2020-01-29 00:21:50 GMT -18.964920 -47.640446 37,000 160 443 -64
2020-01-29 00:21:42 GMT -18.950134 -47.645889 37,000 160 442 0
2020-01-29 00:21:32 GMT -18.929214 -47.653591 37,000 160 442 -64
2020-01-29 00:21:21 GMT -18.908295 -47.661289 37,000 160 441 0
2020-01-29 00:21:09 GMT -18.884308 -47.670071 37,000 160 441 64
2020-01-29 00:20:58 GMT -18.865723 -47.676888 37,000 160 441 0
2020-01-29 00:20:48 GMT -18.845278 -47.684460 37,000 160 440 0
2020-01-29 00:20:35 GMT -18.820175 -47.693710 37,000 160 440 0
2020-01-29 00:20:24 GMT -18.798569 -47.701656 37,000 160 440 0
2020-01-29 00:20:15 GMT -18.781221 -47.707981 37,000 160 439 64
2020-01-29 00:20:05 GMT -18.761156 -47.715271 37,000 160 439 0
2020-01-29 00:19:57 GMT -18.748075 -47.720066 37,000 160 439 0
2020-01-29 00:19:54 GMT -18.740753 -47.722748 37,000 160 439 64
2020-01-29 00:19:38 GMT -18.710369 -47.733749 37,000 160 438 0
2020-01-29 00:19:28 GMT -18.690079 -47.741333 37,000 157 438 384
2020-01-29 00:19:16 GMT -18.670715 -47.750210 37,000 154 438 0
2020-01-29 00:19:05 GMT -18.646826 -47.761963 37,000 154 437 64
2020-01-29 00:18:55 GMT -18.629927 -47.770252 37,000 154 437 0
2020-01-29 00:18:42 GMT -18.606079 -47.781944 37,000 154 436 0
2020-01-29 00:18:34 GMT -18.590652 -47.789497 37,000 154 436 0
2020-01-29 00:18:12 GMT -18.550323 -47.809361 37,000 154 437 0
2020-01-29 00:17:23 GMT -18.462204 -47.852619 37,000 154 437 0
2020-01-29 00:17:13 GMT -18.442739 -47.862137 37,000 154 436 -64
2020-01-29 00:17:08 GMT -18.433594 -47.866646 37,000 154 436 0
2020-01-29 00:16:57 GMT -18.413412 -47.876518 37,000 154 436 64
2020-01-29 00:16:44 GMT -18.391439 -47.887306 37,000 154 436 -64
2020-01-29 00:16:30 GMT -18.366165 -47.899654 37,000 154 434 0
2020-01-29 00:16:21 GMT -18.348240 -47.908432 37,000 154 435 0
2020-01-29 00:16:13 GMT -18.333618 -47.915596 37,000 155 435 -64
2020-01-29 00:16:03 GMT -18.314575 -47.924915 37,000 155 435 64
2020-01-29 00:15:51 GMT -18.294388 -47.934772 37,000 154 437 0
2020-01-29 00:15:40 GMT -18.274567 -47.944485 37,000 154 437 0
2020-01-29 00:15:31 GMT -18.255066 -47.953999 37,000 155 437 0
2020-01-29 00:15:20 GMT -18.235537 -47.963512 37,000 155 437 0
2020-01-29 00:15:09 GMT -18.216064 -47.973026 37,000 155 437 0
2020-01-29 00:14:57 GMT -18.195419 -47.983082 37,000 154 438 0
2020-01-29 00:14:47 GMT -18.175507 -47.992859 37,000 154 439 -64
2020-01-29 00:14:37 GMT -18.155228 -48.002880 37,000 154 440 0
2020-01-29 00:14:26 GMT -18.135635 -48.012566 37,000 154 440 0
2020-01-29 00:14:14 GMT -18.116083 -48.022221 37,000 154 441 0
2020-01-29 00:14:03 GMT -18.095739 -48.032276 37,000 154 441 0
2020-01-29 00:13:54 GMT -18.076094 -48.041939 37,000 154 441 0
2020-01-29 00:13:43 GMT -18.056868 -48.051453 37,000 154 441 0
2020-01-29 00:13:32 GMT -18.036072 -48.061668 37,000 154 442 0
2020-01-29 00:13:20 GMT -18.015949 -48.071465 37,000 155 442 0
2020-01-29 00:13:09 GMT -17.995419 -48.081371 37,000 155 443 -64
2020-01-29 00:13:00 GMT -17.976334 -48.090530 37,000 155 444 0
2020-01-29 00:12:49 GMT -17.954966 -48.100697 37,000 155 443 0
2020-01-29 00:12:38 GMT -17.935089 -48.110191 37,000 155 444 -64
2020-01-29 00:12:26 GMT -17.914902 -48.119923 37,025 155 444 0
2020-01-29 00:12:16 GMT -17.894714 -48.129753 37,000 155 443 448
2020-01-29 00:12:06 GMT -17.874619 -48.139488 36,875 154 442 1344
2020-01-29 00:11:55 GMT -17.854889 -48.149124 36,650 154 442 1216
2020-01-29 00:11:44 GMT -17.834488 -48.159107 36,450 154 441 1280
2020-01-29 00:11:32 GMT -17.814425 -48.168919 36,225 154 441 1280
2020-01-29 00:11:22 GMT -17.794739 -48.178516 35,975 155 441 1472
2020-01-29 00:11:12 GMT -17.775042 -48.188046 35,725 155 442 1728
2020-01-29 00:11:04 GMT -17.757910 -48.196335 35,475 155 442 1664
2020-01-29 00:11:01 GMT -17.754930 -48.197758 35,450 155 442 1792
2020-01-29 00:10:50 GMT -17.734314 -48.207672 35,150 155 445 1280
2020-01-29 00:10:41 GMT -17.717503 -48.215805 35,025 155 444 320
2020-01-29 00:10:38 GMT -17.714478 -48.217278 35,000 155 443 192
2020-01-29 00:10:31 GMT -17.699203 -48.224632 35,000 155 441 -64
2020-01-29 00:10:28 GMT -17.693668 -48.227333 35,000 155 441 0
2020-01-29 00:10:18 GMT -17.674349 -48.236698 35,000 155 440 0
2020-01-29 00:10:07 GMT -17.653931 -48.246555 35,000 155 440 64
2020-01-29 00:09:55 GMT -17.634613 -48.255905 35,000 155 441 0
2020-01-29 00:09:45 GMT -17.614517 -48.265591 35,000 155 442 0
2020-01-29 00:09:35 GMT -17.568722 -48.287708 35,000 155 442 0
2020-01-29 00:09:22 GMT -17.568722 -48.287708 35,000 155 442 0
2020-01-29 00:09:13 GMT -17.553452 -48.295078 35,000 155 442 -64
2020-01-29 00:09:01 GMT -17.533676 -48.304619 35,000 155 442 0
2020-01-29 00:08:53 GMT -17.518398 -48.311985 35,000 155 442 0
2020-01-29 00:08:50 GMT -17.512802 -48.314644 35,000 155 442 0
2020-01-29 00:08:41 GMT -17.493393 -48.323990 35,000 155 442 0
2020-01-29 00:08:33 GMT -17.479946 -48.330475 35,000 155 443 0
2020-01-29 00:08:30 GMT -17.473572 -48.333530 35,000 155 443 0
2020-01-29 00:08:24 GMT -17.460159 -48.340034 35,000 155 444 0
2020-01-29 00:08:19 GMT -17.452652 -48.343651 35,000 155 444 0
2020-01-29 00:08:07 GMT -17.432510 -48.353432 35,000 154 443 -64
2020-01-29 00:08:00 GMT -17.419830 -48.359600 35,000 158 443 -192
2020-01-29 00:07:57 GMT -17.412725 -48.362995 35,000 156 443 -192
2020-01-29 00:07:47 GMT -17.392502 -48.371552 34,800 170 443 704
2020-01-29 00:07:39 GMT -17.378448 -48.376610 35,000 163 444 -256
2020-01-29 00:07:36 GMT -17.371353 -48.378876 35,000 164 445 -192
2020-01-29 00:07:25 GMT -17.349321 -48.384819 34,975 167 444 704
2020-01-29 00:07:17 GMT -17.335588 -48.387665 34,850 170 442 704
2020-01-29 00:07:13 GMT -17.327488 -48.389038 34,800 172 442 832
2020-01-29 00:07:04 GMT -17.305939 -48.392029 34,650 172 440 960
2020-01-29 00:06:53 GMT -17.283636 -48.395069 34,475 172 439 960
2020-01-29 00:06:42 GMT -17.262177 -48.397957 34,325 173 438 704
2020-01-29 00:06:34 GMT -17.247185 -48.399338 34,225 177 438 896
2020-01-29 00:06:30 GMT -17.240667 -48.399681 34,150 178 438 1152
2020-01-29 00:06:23 GMT -17.225166 -48.399776 33,975 182 440 1664
2020-01-29 00:06:20 GMT -17.218649 -48.399632 33,875 182 440 1792
2020-01-29 00:06:15 GMT -17.204777 -48.399189 33,775 182 441 1920
2020-01-29 00:06:10 GMT -17.196583 -48.398895 33,550 182 442 1920
2020-01-29 00:06:02 GMT -17.181381 -48.398342 33,325 183 443 1920
2020-01-29 00:05:59 GMT -17.174377 -48.398060 33,225 183 444 1984
2020-01-29 00:05:51 GMT -17.159575 -48.397572 32,975 182 445 2176
2020-01-29 00:05:48 GMT -17.151287 -48.397327 32,850 182 446 2112
2020-01-29 00:05:36 GMT -17.129333 -48.396847 32,475 183 447 2112
2020-01-29 00:05:29 GMT -17.113953 -48.395706 32,225 188 450 1856
2020-01-29 00:05:26 GMT -17.106903 -48.394825 32,100 189 451 1984
2020-01-29 00:05:19 GMT -17.092850 -48.392365 31,900 192 452 1856
2020-01-29 00:05:16 GMT -17.085045 -48.390606 31,725 194 453 2048
2020-01-29 00:05:05 GMT -17.061951 -48.383644 31,350 201 456 1472
2020-01-29 00:04:53 GMT -17.038864 -48.373783 31,050 207 455 1664
2020-01-29 00:04:45 GMT -17.025696 -48.366730 30,875 209 455 1600
2020-01-29 00:04:42 GMT -17.020895 -48.363976 30,800 210 455 1216
2020-01-29 00:04:35 GMT -17.008026 -48.356419 30,700 210 454 576
2020-01-29 00:04:31 GMT -17.001017 -48.352303 30,675 210 453 832
2020-01-29 00:04:22 GMT -16.981279 -48.340530 30,525 211 456 896
2020-01-29 00:04:10 GMT -16.959778 -48.327412 30,375 211 453 960
2020-01-29 00:04:00 GMT -16.930206 -48.309341 30,100 211 449 1600
2020-01-29 00:03:54 GMT -16.930206 -48.309341 30,000 211 448 1664
2020-01-29 00:03:40 GMT -16.906237 -48.294575 29,700 211 446 1536
2020-01-29 00:03:31 GMT -16.889465 -48.284332 29,500 211 445 1792
2020-01-29 00:03:28 GMT -16.884476 -48.281300 29,350 211 444 1536
2020-01-29 00:03:19 GMT -16.868088 -48.271374 29,125 211 443 1664
2020-01-29 00:03:12 GMT -16.855635 -48.263821 28,950 211 443 1792
2020-01-29 00:03:06 GMT -16.845383 -48.257591 28,800 211 441 1664
2020-01-29 00:02:48 GMT -16.815971 -48.240086 28,375 210 438 1856
2020-01-29 00:02:44 GMT -16.807499 -48.235081 28,200 210 437 2112
2020-01-29 00:02:27 GMT -16.777542 -48.217403 27,775 210 436 2048
2020-01-29 00:02:15 GMT -16.756439 -48.204971 27,375 210 435 2048
2020-01-29 00:02:11 GMT -16.748703 -48.200493 27,150 209 434 2048
2020-01-29 00:01:59 GMT -16.729477 -48.189938 26,750 208 432 2176
2020-01-29 00:01:48 GMT -16.708099 -48.178326 26,350 208 430 1984
2020-01-29 00:01:37 GMT -16.688965 -48.167965 26,075 208 430 2112
2020-01-29 00:00:58 GMT -16.620621 -48.131153 24,975 208 424 2048
2020-01-29 00:00:29 GMT -16.568344 -48.103012 23,875 208 415 2112
2020-01-28 23:59:28 GMT -16.467316 -48.049141 21,900 205 397 2176
2020-01-28 23:59:18 GMT -16.449829 -48.041187 21,525 204 393 2560
2020-01-28 23:59:07 GMT -16.431793 -48.032997 21,000 204 392 2944
2020-01-28 23:58:56 GMT -16.413435 -48.024723 20,575 204 391 2816
2020-01-28 23:58:44 GMT -16.395813 -48.016853 20,125 204 389 2560
2020-01-28 23:58:34 GMT -16.377869 -48.008953 19,625 203 386 2496
2020-01-28 23:58:24 GMT -16.360062 -48.001148 19,200 204 383 2816
2020-01-28 23:58:13 GMT -16.342722 -47.993530 18,775 203 381 2624
2020-01-28 23:58:02 GMT -16.307575 -47.978374 18,225 203 378 3392
2020-01-28 23:57:51 GMT -16.307575 -47.978374 17,725 203 377 2496
2020-01-28 23:57:39 GMT -16.287558 -47.969742 17,225 203 374 3584
2020-01-28 23:57:29 GMT -16.270845 -47.962582 16,650 203 374 3200
2020-01-28 23:57:17 GMT -16.252178 -47.954586 16,125 203 374 2944
2020-01-28 23:57:07 GMT -16.235418 -47.947868 15,600 197 371 3072
2020-01-28 23:56:55 GMT -16.214518 -47.943993 15,025 181 369 3200
2020-01-28 23:56:44 GMT -16.187897 -47.946503 14,500 170 363 3456
2020-01-28 23:56:36 GMT -16.183605 -47.947231 14,100 170 362 3520
2020-01-28 23:56:25 GMT -16.165329 -47.950214 13,475 171 361 3776
2020-01-28 23:56:14 GMT -16.147476 -47.953106 12,900 171 358 3456
2020-01-28 23:56:02 GMT -16.129074 -47.956142 12,275 170 357 3456
2020-01-28 23:55:52 GMT -16.112091 -47.958935 11,725 170 353 2944
2020-01-28 23:55:40 GMT -16.088686 -47.962975 11,050 172 344 1984
2020-01-28 23:55:28 GMT -16.063828 -47.964741 10,700 181 319 1024
2020-01-28 23:55:20 GMT -16.060801 -47.964741 10,675 181 317 1024
2020-01-28 23:55:08 GMT -16.045813 -47.964397 10,375 182 301 3136
2020-01-28 23:54:58 GMT -16.030518 -47.963947 9,825 183 296 3840
2020-01-28 23:54:48 GMT -16.015459 -47.963318 9,125 183 295 4288
2020-01-28 23:54:37 GMT -16.001450 -47.962742 8,375 183 298 4736
2020-01-28 23:54:26 GMT -15.986178 -47.962189 7,575 182 301 4608
2020-01-28 23:54:15 GMT -15.971002 -47.961796 6,775 181 304 4160
2020-01-28 23:54:04 GMT -15.955826 -47.961796 6,150 178 299 2880
2020-01-28 23:53:54 GMT -15.940704 -47.962551 5,750 174 286 1536
2020-01-28 23:53:43 GMT -15.926684 -47.964397 5,475 169 263 1280
2020-01-28 23:53:32 GMT -15.914301 -47.967140 5,250 166 239 1088
2020-01-28 23:53:21 GMT -15.902757 -47.969055 5,025 184 224 1088
2020-01-28 23:53:10 GMT -15.892181 -47.966789 4,850 211 210 704
2020-01-28 23:53:00 GMT -15.884537 -47.959850 4,650 244 194 1728
2020-01-28 23:52:49 GMT -15.881607 -47.950119 4,250 265 184 2688
2020-01-28 23:52:38 GMT -15.880830 -47.940758 3,750 266 183 2880
2020-01-28 23:52:25 GMT -15.879992 -47.929317 0 267 170
2020-01-28 23:52:21 GMT -15.879810 -47.926556 0 267 160
2020-01-28 23:52:08 GMT -15.879250 -47.917786 0 267 115
2020-01-28 23:52:04 GMT -15.879143 -47.916145 0 267 105
2020-01-28 23:51:50 GMT -15.878782 -47.910580 0 264 36
2020-01-28 23:51:44 GMT -15.878723 -47.909714 0 171 10
2020-01-28 23:51:20 GMT -15.878712 -47.909588 0 171 0
2020-01-28 23:50:59 GMT -15.878712 -47.909595 0 171 0
2020-01-28 23:50:38 GMT -15.878712 -47.909580 0 171 0
2020-01-28 23:50:28 GMT -15.878712 -47.909546 0 171 3
2020-01-28 23:50:16 GMT -15.878712 -47.909416 0 171 4
2020-01-28 23:50:06 GMT -15.878586 -47.909340 0 171 6

Making use of Plane Finder data

You are free to use the raw flight data, aircraft information and images provided in this report for your own purposes provided the data is correctly attributed to Plane Finder. We ask that you please credit Plane Finder and link to planefinder.net in close proximity to the content.

Optionally one of the following logos (no smaller then 150x24px) can be used and must link to planefinder.net

Embedding the Plane Finder map

You are welcome to embed the Plane Finder playback map on your website to offer visitors a more interactive experience. We suggest using the following HTML code:

<iframe src="//planefinder.net/data/report/G31463-PR-GXV-7700-squawk-2020-01-29/map" width="800" height="600" seamless="seamless"></iframe>

Where our data comes from

Plane Finder has a global network of data feeds and antenna radars that receive data broadcast directly from aircraft. The primary technologies used are ADS-B and MLAT. We also show feeds from the FAA and a FLARM glider feed.

Click here to find out more about the Plane Finder network.

How we collect our data